createdAt,value
2018-11-11T00:00:22.441Z,16.1
2018-11-11T00:01:13.967Z,16.1
2018-11-11T00:02:03.912Z,16.1
2018-11-11T00:02:52.781Z,16.1
2018-11-11T00:03:43.649Z,16.1
2018-11-11T00:04:32.834Z,16.1
2018-11-11T00:05:22.569Z,16.1
2018-11-11T00:06:12.267Z,16.1
2018-11-11T00:07:03.306Z,16.1
2018-11-11T00:25:11.831Z,16
2018-11-11T00:26:02.560Z,16
2018-11-11T00:26:51.558Z,16
2018-11-11T00:27:43.045Z,16.1
2018-11-11T00:28:33.808Z,16
2018-11-11T00:29:23.088Z,16
2018-11-11T00:30:11.996Z,16
2018-11-11T00:31:02.087Z,16
2018-11-11T00:31:51.394Z,16
2018-11-11T00:32:42.133Z,16
2018-11-11T00:33:33.014Z,16
2018-11-11T00:34:22.670Z,16
2018-11-11T00:35:13.752Z,16
2018-11-11T00:36:02.619Z,16
2018-11-11T00:36:52.471Z,16
2018-11-11T00:37:43.774Z,16
2018-11-11T00:38:32.871Z,16
2018-11-11T00:39:24.152Z,16
2018-11-11T00:40:11.674Z,16
2018-11-11T00:41:03.532Z,16
2018-11-11T00:41:54.527Z,15.9
2018-11-11T00:42:43.286Z,16
2018-11-11T00:43:32.974Z,16
2018-11-11T00:44:22.070Z,16
2018-11-11T00:45:13.929Z,15.9
2018-11-11T00:46:03.206Z,15.9
2018-11-11T00:46:52.586Z,16
2018-11-11T00:47:42.866Z,15.9
2018-11-11T00:48:32.034Z,16
2018-11-11T00:49:22.271Z,15.9
2018-11-11T00:50:13.302Z,15.9
2018-11-11T00:51:04.235Z,15.9
2018-11-11T00:51:53.483Z,15.9
2018-11-11T00:52:43.083Z,15.9
2018-11-11T00:53:33.746Z,15.9
2018-11-11T00:54:24.101Z,15.9
2018-11-11T00:55:13.926Z,15.9
2018-11-11T00:56:04.639Z,15.9
2018-11-11T00:56:54.551Z,15.9
2018-11-11T00:57:43.715Z,15.9
2018-11-11T00:58:34.940Z,15.9
2018-11-11T00:59:25.724Z,15.9
2018-11-11T01:00:14.144Z,15.9
2018-11-11T01:01:04.639Z,15.9
2018-11-11T01:01:54.755Z,15.9
2018-11-11T01:02:44.191Z,15.9
2018-11-11T01:03:34.740Z,15.9
2018-11-11T01:04:25.148Z,15.9
2018-11-11T01:05:14.182Z,15.9
2018-11-11T01:06:04.668Z,15.9
2018-11-11T01:06:53.983Z,15.9
2018-11-11T01:07:44.395Z,15.9
2018-11-11T01:08:34.797Z,15.9
2018-11-11T01:09:24.994Z,15.9
2018-11-11T01:10:15.227Z,15.9
2018-11-11T01:11:05.012Z,15.9
2018-11-11T01:11:54.445Z,15.9
2018-11-11T01:12:43.766Z,15.9
2018-11-11T01:13:34.858Z,15.9
2018-11-11T01:14:25.197Z,15.9
2018-11-11T01:15:15.509Z,15.9
2018-11-11T01:16:06.066Z,15.9
2018-11-11T01:16:56.120Z,15.9
2018-11-11T01:17:45.659Z,15.9
2018-11-11T01:18:36.012Z,15.9
2018-11-11T01:19:25.554Z,15.9
2018-11-11T01:20:15.970Z,15.9
2018-11-11T01:21:06.504Z,15.9
2018-11-11T01:21:56.115Z,15.9
2018-11-11T01:22:45.729Z,15.9
2018-11-11T01:23:35.844Z,15.9
2018-11-11T01:24:26.492Z,15.9
2018-11-11T01:25:16.877Z,15.9
2018-11-11T01:26:06.781Z,15.9
2018-11-11T01:26:57.165Z,15.9
2018-11-11T01:27:45.954Z,15.9
2018-11-11T01:28:36.059Z,15.9
2018-11-11T01:29:25.429Z,15.9
2018-11-11T01:30:15.774Z,15.9
2018-11-11T01:31:06.527Z,15.9
2018-11-11T01:31:56.305Z,15.9
2018-11-11T01:32:46.947Z,15.8
2018-11-11T01:33:34.971Z,15.9
2018-11-11T01:34:25.672Z,15.9
2018-11-11T01:35:15.183Z,15.9
2018-11-11T01:36:08.404Z,15.8
2018-11-11T01:36:56.612Z,15.8
2018-11-11T01:37:47.718Z,15.8
2018-11-11T01:38:36.004Z,15.9
2018-11-11T01:39:25.583Z,15.8
2018-11-11T01:40:16.977Z,15.8
2018-11-11T01:41:07.095Z,15.8
2018-11-11T01:41:56.799Z,15.9
2018-11-11T01:42:47.558Z,15.8
2018-11-11T01:43:36.712Z,15.8
2018-11-11T01:44:27.981Z,15.8
2018-11-11T01:45:17.162Z,15.8
2018-11-11T01:46:07.278Z,15.8
2018-11-11T01:46:58.145Z,15.8
2018-11-11T01:47:47.073Z,15.8
2018-11-11T01:48:37.156Z,15.8
2018-11-11T01:49:28.074Z,15.8
2018-11-11T01:50:18.193Z,15.8
2018-11-11T01:51:08.035Z,15.8
2018-11-11T01:51:58.510Z,15.8
2018-11-11T01:52:48.242Z,15.8
2018-11-11T01:53:37.547Z,15.8
2018-11-11T01:54:27.545Z,15.8
2018-11-11T01:55:17.515Z,15.8
2018-11-11T01:56:06.408Z,15.8
2018-11-11T01:56:56.907Z,15.8
2018-11-11T01:57:48.272Z,15.8
2018-11-11T01:58:37.398Z,15.8
2018-11-11T01:59:28.606Z,15.8
2018-11-11T02:00:16.804Z,15.8
2018-11-11T02:01:09.085Z,15.8
2018-11-11T02:01:57.630Z,15.8
2018-11-11T02:02:48.409Z,15.8
2018-11-11T02:03:37.962Z,15.8
2018-11-11T02:04:28.569Z,15.8
2018-11-11T02:05:17.933Z,15.8
2018-11-11T02:06:08.467Z,15.8
2018-11-11T02:06:59.590Z,15.8
2018-11-11T02:07:49.081Z,15.8
2018-11-11T02:08:39.263Z,15.8
2018-11-11T02:09:28.582Z,15.8
2018-11-11T02:10:19.055Z,15.8
2018-11-11T02:11:08.380Z,15.8
2018-11-11T02:11:59.722Z,15.8
2018-11-11T02:12:50.571Z,15.8
2018-11-11T02:13:39.773Z,15.8
2018-11-11T02:14:29.435Z,15.8
2018-11-11T02:15:19.873Z,15.8
2018-11-11T02:16:09.459Z,15.8
2018-11-11T02:16:59.414Z,15.8
2018-11-11T02:17:50.424Z,15.8
2018-11-11T02:18:39.656Z,15.8
2018-11-11T02:19:29.207Z,15.8
2018-11-11T02:20:20.188Z,15.8
2018-11-11T02:21:09.403Z,15.7
2018-11-11T02:22:00.152Z,15.8
2018-11-11T02:22:50.356Z,15.7
2018-11-11T02:23:41.536Z,15.8
2018-11-11T02:24:29.775Z,15.7
2018-11-11T02:25:20.029Z,15.7
2018-11-11T02:26:11.239Z,15.7
2018-11-11T02:27:01.812Z,15.8
2018-11-11T02:27:50.131Z,15.7
2018-11-11T02:28:40.056Z,15.7
2018-11-11T02:29:30.053Z,15.7
2018-11-11T02:30:20.805Z,15.7
2018-11-11T02:31:10.215Z,15.7
2018-11-11T02:32:00.579Z,15.7
2018-11-11T02:32:50.128Z,15.7
2018-11-11T02:33:40.991Z,15.7
2018-11-11T02:34:30.971Z,15.7
2018-11-11T02:35:20.165Z,15.7
2018-11-11T02:36:11.498Z,15.7
2018-11-11T02:37:00.123Z,15.7
2018-11-11T02:37:52.768Z,15.7
2018-11-11T02:38:40.260Z,15.7
2018-11-11T02:39:32.188Z,15.7
2018-11-11T02:40:21.374Z,15.7
2018-11-11T02:41:11.468Z,15.7
2018-11-11T02:42:01.339Z,15.7
2018-11-11T02:42:51.073Z,15.7
2018-11-11T02:43:42.241Z,15.7
2018-11-11T02:44:32.283Z,15.7
2018-11-11T02:45:22.377Z,15.7
2018-11-11T02:46:10.790Z,15.7
2018-11-11T02:47:01.697Z,15.7
2018-11-11T02:47:52.520Z,15.6
2018-11-11T02:48:42.090Z,15.7
2018-11-11T02:49:31.576Z,15.6
2018-11-11T02:50:21.435Z,15.6
2018-11-11T02:51:12.347Z,15.7
2018-11-11T02:52:02.155Z,15.6
2018-11-11T02:52:51.141Z,15.7
2018-11-11T02:53:41.614Z,15.6
2018-11-11T02:54:31.422Z,15.6
2018-11-11T02:55:22.310Z,15.6
2018-11-11T02:56:12.242Z,15.6
2018-11-11T02:57:01.883Z,15.6
2018-11-11T02:57:52.396Z,15.6
2018-11-11T02:58:42.492Z,15.6
2018-11-11T02:59:31.533Z,15.6
2018-11-11T03:00:21.974Z,15.6
2018-11-11T03:01:12.469Z,15.6
2018-11-11T03:02:02.271Z,15.6
2018-11-11T03:02:52.228Z,15.6
2018-11-11T03:03:43.066Z,15.6
2018-11-11T03:04:35.677Z,15.6
2018-11-11T03:05:22.996Z,15.6
2018-11-11T03:06:13.625Z,15.6
2018-11-11T03:07:03.546Z,15.6
2018-11-11T03:07:53.481Z,15.6
2018-11-11T03:08:42.133Z,15.6
2018-11-11T03:09:34.582Z,15.6
2018-11-11T03:10:24.423Z,15.6
2018-11-11T03:11:13.337Z,15.6
2018-11-11T03:12:04.341Z,15.6
2018-11-11T03:12:54.338Z,15.6
2018-11-11T03:13:44.213Z,15.6
2018-11-11T03:14:34.418Z,15.6
2018-11-11T03:15:24.424Z,15.6
2018-11-11T03:16:12.778Z,15.6
2018-11-11T03:17:04.895Z,15.6
2018-11-11T03:17:53.620Z,15.6
2018-11-11T03:18:44.362Z,15.6
2018-11-11T03:19:34.673Z,15.6
2018-11-11T03:20:25.563Z,15.6
2018-11-11T03:21:14.328Z,15.6
2018-11-11T03:22:04.210Z,15.6
2018-11-11T03:22:54.376Z,15.6
2018-11-11T03:23:44.977Z,15.6
2018-11-11T03:24:35.729Z,15.6
2018-11-11T03:25:24.965Z,15.6
2018-11-11T03:26:13.909Z,15.6
2018-11-11T03:27:04.445Z,15.6
2018-11-11T03:27:54.648Z,15.6
2018-11-11T03:28:44.322Z,15.6
2018-11-11T03:29:35.598Z,15.6
2018-11-11T03:30:25.433Z,15.6
2018-11-11T03:31:14.945Z,15.6
2018-11-11T03:32:05.887Z,15.6
2018-11-11T03:32:56.293Z,15.6
2018-11-11T03:33:45.092Z,15.6
2018-11-11T03:34:36.447Z,15.6
2018-11-11T03:35:24.736Z,15.6
2018-11-11T03:36:15.675Z,15.5
2018-11-11T03:37:06.270Z,15.6
2018-11-11T03:37:55.230Z,15.6
2018-11-11T03:38:44.411Z,15.5
2018-11-11T03:39:36.004Z,15.6
2018-11-11T03:40:25.634Z,15.6
2018-11-11T03:41:14.901Z,15.6
2018-11-11T03:42:05.466Z,15.6
2018-11-11T03:42:56.224Z,15.5
2018-11-11T03:43:45.742Z,15.6
2018-11-11T03:44:35.848Z,15.5
2018-11-11T03:45:25.242Z,15.5
2018-11-11T03:46:15.754Z,15.5
2018-11-11T03:47:06.593Z,15.5
2018-11-11T03:47:56.856Z,15.5
2018-11-11T03:48:46.096Z,15.5
2018-11-11T03:49:36.099Z,15.5
2018-11-11T03:50:26.681Z,15.5
2018-11-11T03:51:16.809Z,15.5
2018-11-11T03:52:06.541Z,15.5
2018-11-11T03:52:57.156Z,15.5
2018-11-11T03:53:46.680Z,15.5
2018-11-11T03:54:36.964Z,15.5
2018-11-11T03:55:27.363Z,15.5
2018-11-11T03:56:16.545Z,15.5
2018-11-11T03:57:07.988Z,15.5
2018-11-11T03:57:57.996Z,15.4
2018-11-11T03:58:48.537Z,15.5
2018-11-11T03:59:36.661Z,15.5
2018-11-11T04:00:27.937Z,15.5
2018-11-11T04:01:17.175Z,15.5
2018-11-11T04:02:06.225Z,15.4
2018-11-11T04:02:57.944Z,15.5
2018-11-11T04:03:47.925Z,15.5
2018-11-11T04:04:36.922Z,15.4
2018-11-11T04:05:26.234Z,15.5
2018-11-11T04:06:17.895Z,15.4
2018-11-11T04:07:08.025Z,15.4
2018-11-11T04:07:58.508Z,15.4
2018-11-11T04:08:46.193Z,15.4
2018-11-11T04:09:38.192Z,15.4
2018-11-11T04:10:30.204Z,15.4
2018-11-11T04:11:19.222Z,15.4
2018-11-11T04:12:08.009Z,15.4
2018-11-11T04:12:58.506Z,15.4
2018-11-11T04:13:48.909Z,15.4
2018-11-11T04:14:38.063Z,15.4
2018-11-11T04:15:29.250Z,15.4
2018-11-11T04:16:17.920Z,15.4
2018-11-11T04:17:08.537Z,15.4
2018-11-11T04:17:59.695Z,15.4
2018-11-11T04:18:48.800Z,15.4
2018-11-11T04:19:39.249Z,15.4
2018-11-11T04:20:29.217Z,15.4
2018-11-11T04:21:18.826Z,15.4
2018-11-11T04:22:09.794Z,15.4
2018-11-11T04:22:59.991Z,15.4
2018-11-11T04:23:49.344Z,15.4
2018-11-11T04:24:38.938Z,15.4
2018-11-11T04:25:29.607Z,15.4
2018-11-11T04:26:19.547Z,15.4
2018-11-11T04:27:09.584Z,15.4
2018-11-11T04:27:59.092Z,15.4
2018-11-11T04:28:50.159Z,15.4
2018-11-11T04:29:39.711Z,15.4
2018-11-11T04:30:29.906Z,15.4
2018-11-11T04:31:20.119Z,15.4
2018-11-11T04:32:10.496Z,15.4
2018-11-11T04:32:59.401Z,15.4
2018-11-11T04:33:50.012Z,15.4
2018-11-11T04:34:40.655Z,15.4
2018-11-11T04:35:31.231Z,15.4
2018-11-11T04:36:19.768Z,15.4
2018-11-11T04:54:23.946Z,15.3
2018-11-11T04:55:13.340Z,15.4
2018-11-11T04:56:04.173Z,15.4
2018-11-11T04:56:54.029Z,15.3
2018-11-11T04:57:44.625Z,15.4
2018-11-11T04:58:34.103Z,15.3
2018-11-11T04:59:23.594Z,15.3
2018-11-11T05:00:14.245Z,15.4
2018-11-11T05:01:03.095Z,15.3
2018-11-11T05:01:53.864Z,15.3
2018-11-11T05:02:43.230Z,15.3
2018-11-11T05:03:33.028Z,15.3
2018-11-11T05:04:24.824Z,15.3
2018-11-11T05:05:14.513Z,15.3
2018-11-11T05:06:03.128Z,15.3
2018-11-11T05:06:54.640Z,15.3
2018-11-11T05:07:44.997Z,15.3
2018-11-11T05:08:34.415Z,15.3
2018-11-11T05:09:24.593Z,15.3
2018-11-11T05:10:14.890Z,15.3
2018-11-11T05:11:03.738Z,15.3
2018-11-11T05:11:54.543Z,15.3
2018-11-11T05:12:43.805Z,15.3
2018-11-11T05:13:33.122Z,15.3
2018-11-11T05:14:24.430Z,15.3
2018-11-11T05:15:13.602Z,15.3
2018-11-11T05:16:03.765Z,15.3
2018-11-11T05:16:55.397Z,15.3
2018-11-11T05:17:44.126Z,15.3
2018-11-11T05:18:35.089Z,15.3
2018-11-11T05:19:24.525Z,15.3
2018-11-11T05:20:14.837Z,15.3
2018-11-11T05:21:05.648Z,15.3
2018-11-11T05:21:56.522Z,15.3
2018-11-11T05:22:44.770Z,15.3
2018-11-11T05:23:34.482Z,15.3
2018-11-11T05:24:25.369Z,15.3
2018-11-11T05:25:15.649Z,15.3
2018-11-11T05:26:05.458Z,15.3
2018-11-11T05:26:55.257Z,15.3
2018-11-11T05:27:45.575Z,15.3
2018-11-11T05:28:34.924Z,15.3
2018-11-11T05:29:24.421Z,15.3
2018-11-11T05:30:16.106Z,15.3
2018-11-11T05:31:05.940Z,15.3
2018-11-11T05:31:55.206Z,15.3
2018-11-11T05:32:45.169Z,15.3
2018-11-11T05:33:34.894Z,15.3
2018-11-11T05:34:26.626Z,15.3
2018-11-11T05:35:14.966Z,15.3
2018-11-11T05:36:05.773Z,15.3
2018-11-11T05:36:55.766Z,15.3
2018-11-11T05:37:45.396Z,15.3
2018-11-11T05:38:35.204Z,15.3
2018-11-11T05:39:23.891Z,15.3
2018-11-11T05:40:15.338Z,15.3
2018-11-11T05:41:05.964Z,15.3
2018-11-11T05:41:56.961Z,15.3
2018-11-11T05:42:45.888Z,15.3
2018-11-11T05:43:37.113Z,15.3
2018-11-11T05:44:26.211Z,15.3
2018-11-11T05:45:16.913Z,15.3
2018-11-11T05:46:06.643Z,15.3
2018-11-11T05:46:56.493Z,15.3
2018-11-11T05:47:46.746Z,15.2
2018-11-11T05:48:35.895Z,15.2
2018-11-11T05:49:26.654Z,15.2
2018-11-11T05:50:17.043Z,15.3
2018-11-11T05:51:08.398Z,15.3
2018-11-11T05:51:57.019Z,15.2
2018-11-11T05:52:47.942Z,15.3
2018-11-11T05:53:37.012Z,15.2
2018-11-11T05:54:25.835Z,15.2
2018-11-11T05:55:18.468Z,15.2
2018-11-11T05:56:07.698Z,15.2
2018-11-11T05:56:56.782Z,15.2
2018-11-11T05:57:47.825Z,15.2
2018-11-11T05:58:37.845Z,15.2
2018-11-11T05:59:26.885Z,15.2
2018-11-11T06:00:17.948Z,15.2
2018-11-11T06:01:07.132Z,15.3
2018-11-11T06:01:56.932Z,15.2
2018-11-11T06:02:46.990Z,15.2
2018-11-11T06:03:37.177Z,15.2
2018-11-11T06:04:28.075Z,15.2
2018-11-11T06:05:16.730Z,15.2
2018-11-11T06:06:07.692Z,15.2
2018-11-11T06:06:55.914Z,15.2
2018-11-11T06:07:46.957Z,15.2
2018-11-11T06:08:38.914Z,15.2
2018-11-11T06:09:29.158Z,15.2
2018-11-11T06:10:18.749Z,15.2
2018-11-11T06:11:08.564Z,15.2
2018-11-11T06:11:59.061Z,15.2
2018-11-11T06:12:46.854Z,15.2
2018-11-11T06:13:38.906Z,15.2
2018-11-11T06:14:28.579Z,15.2
2018-11-11T06:15:18.949Z,15.2
2018-11-11T06:16:07.882Z,15.1
2018-11-11T06:17:00.024Z,15.2
2018-11-11T06:17:49.214Z,15.1
2018-11-11T06:18:40.029Z,15.1
2018-11-11T06:19:28.934Z,15.2
2018-11-11T06:20:18.945Z,15.1
2018-11-11T06:21:08.394Z,15.1
2018-11-11T06:22:00.459Z,15.1
2018-11-11T06:22:49.643Z,15.1
2018-11-11T06:23:39.460Z,15.1
2018-11-11T06:24:29.073Z,15.1
2018-11-11T06:25:20.369Z,15.1
2018-11-11T06:26:10.440Z,15.1
2018-11-11T06:26:59.873Z,15.1
2018-11-11T06:27:49.629Z,15.1
2018-11-11T06:28:39.718Z,15.1
2018-11-11T06:29:30.355Z,15.1
2018-11-11T06:30:19.828Z,15.1
2018-11-11T06:31:09.986Z,15.1
2018-11-11T06:32:00.976Z,15.1
2018-11-11T06:32:49.686Z,15.1
2018-11-11T06:33:40.338Z,15.1
2018-11-11T06:34:30.257Z,15.1
2018-11-11T06:35:20.164Z,15.1
2018-11-11T06:36:10.577Z,15.1
2018-11-11T06:37:00.083Z,15.1
2018-11-11T06:37:49.520Z,15.1
2018-11-11T06:38:40.488Z,15.1
2018-11-11T06:39:30.016Z,15.1
2018-11-11T06:40:19.259Z,15.1
2018-11-11T06:41:09.815Z,15.1
2018-11-11T06:42:00.130Z,15.1
2018-11-11T06:42:50.980Z,15.1
2018-11-11T06:43:39.494Z,15.1
2018-11-11T06:44:30.367Z,15.1
2018-11-11T06:45:19.827Z,15.1
2018-11-11T06:46:09.725Z,14.9
2018-11-11T06:47:01.013Z,14.8
2018-11-11T06:47:51.359Z,14.8
2018-11-11T06:48:41.097Z,14.8
2018-11-11T06:49:29.825Z,14.8
2018-11-11T06:50:21.739Z,14.8
2018-11-11T06:51:11.321Z,14.9
2018-11-11T06:52:02.214Z,14.9
2018-11-11T06:52:50.931Z,14.9
2018-11-11T06:53:40.774Z,14.9
2018-11-11T06:54:31.400Z,14.9
2018-11-11T06:55:20.874Z,14.9
2018-11-11T06:56:11.123Z,14.9
2018-11-11T06:57:00.155Z,14.9
2018-11-11T06:57:50.979Z,14.9
2018-11-11T06:58:41.574Z,14.9
2018-11-11T06:59:30.622Z,14.9
2018-11-11T07:00:20.439Z,14.9
2018-11-11T07:01:10.309Z,14.9
2018-11-11T07:02:00.628Z,14.9
2018-11-11T07:02:51.886Z,14.9
2018-11-11T07:03:40.611Z,14.9
2018-11-11T07:04:32.078Z,14.9
2018-11-11T07:05:20.784Z,14.9
2018-11-11T07:06:11.239Z,14.9
2018-11-11T07:07:03.176Z,14.9
2018-11-11T07:07:53.183Z,14.9
2018-11-11T07:08:42.649Z,14.9
2018-11-11T07:09:33.339Z,14.9
2018-11-11T07:10:22.796Z,14.9
2018-11-11T07:11:12.356Z,14.9
2018-11-11T07:12:02.290Z,14.9
2018-11-11T07:12:53.604Z,14.9
2018-11-11T07:13:42.715Z,14.9
2018-11-11T07:14:32.606Z,14.9
2018-11-11T07:15:22.575Z,14.9
2018-11-11T07:16:11.893Z,14.9
2018-11-11T07:17:03.225Z,14.9
2018-11-11T07:17:53.230Z,14.9
2018-11-11T07:18:42.690Z,14.9
2018-11-11T07:19:32.107Z,14.9
2018-11-11T07:20:23.562Z,14.9
2018-11-11T07:21:13.639Z,14.9
2018-11-11T07:22:04.061Z,14.9
2018-11-11T07:22:54.817Z,14.9
2018-11-11T07:23:44.877Z,14.9
2018-11-11T07:24:33.963Z,14.9
2018-11-11T07:25:23.461Z,14.9
2018-11-11T07:26:12.345Z,14.9
2018-11-11T07:27:04.205Z,14.9
2018-11-11T07:27:53.878Z,14.9
2018-11-11T07:28:43.891Z,14.9
2018-11-11T07:29:34.559Z,14.9
2018-11-11T07:30:24.480Z,14.9
2018-11-11T07:31:13.970Z,14.9
2018-11-11T07:32:03.615Z,14.9
2018-11-11T07:32:53.997Z,14.9
2018-11-11T07:33:44.315Z,14.9
2018-11-11T07:34:34.427Z,14.9
2018-11-11T07:35:24.161Z,14.9
2018-11-11T07:36:15.602Z,14.9
2018-11-11T07:37:04.579Z,14.9
2018-11-11T07:37:55.407Z,14.9
2018-11-11T07:38:45.118Z,14.9
2018-11-11T07:39:33.902Z,14.9
2018-11-11T07:40:24.721Z,14.9
2018-11-11T07:41:15.173Z,14.9
2018-11-11T07:42:05.705Z,14.9
2018-11-11T07:42:54.897Z,14.9
2018-11-11T07:43:45.213Z,14.9
2018-11-11T07:44:36.049Z,14.9
2018-11-11T07:45:25.753Z,14.9
2018-11-11T07:46:15.509Z,14.8
2018-11-11T07:47:05.497Z,14.9
2018-11-11T07:47:57.389Z,14.9
2018-11-11T07:48:46.106Z,14.9
2018-11-11T07:49:34.921Z,14.9
2018-11-11T07:50:26.276Z,14.9
2018-11-11T07:51:15.231Z,14.9
2018-11-11T07:52:07.055Z,14.9
2018-11-11T07:52:55.661Z,14.9
2018-11-11T07:53:45.156Z,14.9
2018-11-11T07:54:35.130Z,14.9
2018-11-11T07:55:25.241Z,14.8
2018-11-11T07:56:16.315Z,14.9
2018-11-11T07:57:04.716Z,14.9
2018-11-11T07:57:55.496Z,14.9
2018-11-11T07:58:45.158Z,14.8
2018-11-11T07:59:36.758Z,14.9
2018-11-11T08:00:25.468Z,14.8
2018-11-11T08:01:16.200Z,14.9
2018-11-11T08:02:07.175Z,14.8
2018-11-11T08:02:56.365Z,14.9
2018-11-11T08:03:45.642Z,14.9
2018-11-11T08:04:37.111Z,14.8
2018-11-11T08:05:25.267Z,14.9
2018-11-11T08:06:16.763Z,14.8
2018-11-11T08:07:06.723Z,14.9
2018-11-11T08:07:57.130Z,14.8
2018-11-11T08:08:46.410Z,14.8
2018-11-11T08:09:36.255Z,14.8
2018-11-11T08:10:27.490Z,14.8
2018-11-11T08:11:19.496Z,14.8
2018-11-11T08:12:06.619Z,14.8
2018-11-11T08:12:57.543Z,14.8
2018-11-11T08:13:47.200Z,14.8
2018-11-11T08:14:37.589Z,14.7
2018-11-11T08:15:26.046Z,14.7
2018-11-11T08:16:16.757Z,14.7
2018-11-11T08:17:07.894Z,14.7
2018-11-11T08:17:57.982Z,14.7
2018-11-11T08:18:47.269Z,14.7
2018-11-11T08:19:36.789Z,14.7
2018-11-11T08:20:28.217Z,14.7
2018-11-11T08:21:18.121Z,14.7
2018-11-11T08:22:08.398Z,14.8
2018-11-11T08:22:57.587Z,14.8
2018-11-11T08:23:47.557Z,14.8
2018-11-11T08:24:37.183Z,14.7
2018-11-11T08:25:28.875Z,14.8
2018-11-11T08:26:17.354Z,14.8
2018-11-11T08:27:07.493Z,14.8
2018-11-11T08:27:57.521Z,14.7
2018-11-11T08:28:47.660Z,14.8
2018-11-11T08:29:37.826Z,14.7
2018-11-11T08:30:27.608Z,14.7
2018-11-11T08:31:18.036Z,14.7
2018-11-11T08:32:09.009Z,14.7
2018-11-11T08:32:59.047Z,14.7
2018-11-11T08:33:47.528Z,14.7
2018-11-11T08:34:38.633Z,14.8
2018-11-11T08:35:28.444Z,14.7
2018-11-11T08:36:18.823Z,14.7
2018-11-11T08:37:09.048Z,14.8
2018-11-11T08:37:58.076Z,14.8
2018-11-11T08:38:49.835Z,14.8
2018-11-11T08:39:39.608Z,14.8
2018-11-11T08:40:29.157Z,14.8
2018-11-11T08:41:17.733Z,14.7
2018-11-11T08:42:09.449Z,14.8
2018-11-11T08:42:58.765Z,14.8
2018-11-11T08:43:48.649Z,14.7
2018-11-11T08:44:38.868Z,14.7
2018-11-11T08:45:29.233Z,14.7
2018-11-11T08:46:19.425Z,14.7
2018-11-11T08:47:08.423Z,14.7
2018-11-11T08:48:00.648Z,14.6
2018-11-11T08:48:49.929Z,14.6
2018-11-11T08:49:40.420Z,14.6
2018-11-11T08:50:29.167Z,14.6
2018-11-11T08:51:20.079Z,14.6
2018-11-11T08:52:10.521Z,14.6
2018-11-11T09:08:51.155Z,14.5
2018-11-11T09:09:39.374Z,14.5
2018-11-11T09:10:31.621Z,14.5
2018-11-11T09:11:22.770Z,14.5
2018-11-11T09:12:10.761Z,14.5
2018-11-11T09:12:59.555Z,14.4
2018-11-11T09:13:51.346Z,14.4
2018-11-11T09:14:41.366Z,14.5
2018-11-11T09:15:29.931Z,14.5
2018-11-11T09:16:21.347Z,14.5
2018-11-11T09:17:11.905Z,14.5
2018-11-11T09:18:01.629Z,14.5
2018-11-11T09:18:51.625Z,14.5
2018-11-11T09:19:41.436Z,14.5
2018-11-11T09:20:31.385Z,14.6
2018-11-11T09:21:22.933Z,14.6
2018-11-11T09:22:12.213Z,14.6
2018-11-11T09:23:01.688Z,14.6
2018-11-11T09:23:51.389Z,14.6
2018-11-11T09:24:41.371Z,14.6
2018-11-11T09:25:32.276Z,14.6
2018-11-11T09:26:21.311Z,14.6
2018-11-11T09:27:12.631Z,14.6
2018-11-11T09:28:01.589Z,14.6
2018-11-11T09:28:52.615Z,14.6
2018-11-11T09:29:45.754Z,14.6
2018-11-11T09:30:35.528Z,14.6
2018-11-11T09:31:22.809Z,14.6
2018-11-11T09:32:11.316Z,14.6
2018-11-11T09:33:01.880Z,14.6
2018-11-11T09:33:51.374Z,14.6
2018-11-11T09:34:42.010Z,14.6
2018-11-11T09:35:34.541Z,14.6
2018-11-11T09:36:22.508Z,14.6
2018-11-11T09:37:12.202Z,14.6
2018-11-11T09:38:03.117Z,14.6
2018-11-11T09:38:53.018Z,14.6
2018-11-11T09:39:43.573Z,14.6
2018-11-11T09:40:32.404Z,14.6
2018-11-11T09:41:23.577Z,14.6
2018-11-11T09:42:12.552Z,14.6
2018-11-11T09:43:02.712Z,14.6
2018-11-11T09:43:53.860Z,14.6
2018-11-11T09:44:41.989Z,14.6
2018-11-11T09:45:34.224Z,14.6
2018-11-11T09:46:24.812Z,14.6
2018-11-11T09:47:13.203Z,14.6
2018-11-11T09:48:05.039Z,14.6
2018-11-11T09:48:53.600Z,14.6
2018-11-11T09:49:43.666Z,14.6
2018-11-11T09:50:34.761Z,14.6
2018-11-11T09:51:23.149Z,14.6
2018-11-11T09:52:13.328Z,14.6
2018-11-11T09:53:03.445Z,14.6
2018-11-11T09:53:54.447Z,14.6
2018-11-11T09:54:43.819Z,14.6
2018-11-11T09:55:33.018Z,14.6
2018-11-11T09:56:25.010Z,14.6
2018-11-11T09:57:14.545Z,14.6
2018-11-11T09:58:03.406Z,14.6
2018-11-11T09:58:56.094Z,14.6
2018-11-11T09:59:47.387Z,14.6
2018-11-11T10:00:35.330Z,14.6
2018-11-11T10:01:24.404Z,14.6
2018-11-11T10:02:12.933Z,14.6
2018-11-11T10:03:05.267Z,14.6
2018-11-11T10:03:54.704Z,14.6
2018-11-11T10:04:44.525Z,14.6
2018-11-11T10:05:34.415Z,14.6
2018-11-11T10:06:25.808Z,14.6
2018-11-11T10:07:15.819Z,14.6
2018-11-11T10:08:04.022Z,14.7
2018-11-11T10:08:53.527Z,14.6
2018-11-11T10:09:44.336Z,14.6
2018-11-11T10:10:34.811Z,14.6
2018-11-11T10:11:26.369Z,14.6
2018-11-11T10:12:15.543Z,14.7
2018-11-11T10:13:04.227Z,14.7
2018-11-11T10:13:54.524Z,14.7
2018-11-11T10:14:45.014Z,14.7
2018-11-11T10:15:34.585Z,14.7
2018-11-11T10:16:25.641Z,14.7
2018-11-11T10:17:15.668Z,14.7
2018-11-11T10:18:05.507Z,14.7
2018-11-11T10:18:55.037Z,14.7
2018-11-11T10:19:45.804Z,14.7
2018-11-11T10:20:37.307Z,14.7
2018-11-11T10:21:26.806Z,14.7
2018-11-11T10:22:16.076Z,14.7
2018-11-11T10:23:05.253Z,14.7
2018-11-11T10:23:55.974Z,14.7
2018-11-11T10:24:44.280Z,14.7
2018-11-11T10:25:36.026Z,14.7
2018-11-11T10:26:27.650Z,14.7
2018-11-11T10:27:16.874Z,14.7
2018-11-11T10:28:06.508Z,14.7
2018-11-11T10:28:56.639Z,14.7
2018-11-11T10:29:45.726Z,14.7
2018-11-11T10:30:36.365Z,14.7
2018-11-11T10:31:26.126Z,14.7
2018-11-11T10:32:15.695Z,14.7
2018-11-11T10:33:07.281Z,14.8
2018-11-11T10:33:56.075Z,14.8
2018-11-11T10:34:46.628Z,14.8
2018-11-11T10:35:38.027Z,14.8
2018-11-11T10:36:26.988Z,14.8
2018-11-11T10:37:17.468Z,14.8
2018-11-11T10:38:07.333Z,14.8
2018-11-11T10:38:56.272Z,14.8
2018-11-11T10:39:48.339Z,14.8
2018-11-11T10:40:37.430Z,14.8
2018-11-11T10:41:25.910Z,14.8
2018-11-11T10:42:16.677Z,14.8
2018-11-11T10:43:06.197Z,14.8
2018-11-11T10:43:57.603Z,14.8
2018-11-11T10:44:46.785Z,14.8
2018-11-11T10:45:36.799Z,14.8
2018-11-11T10:46:26.847Z,14.8
2018-11-11T10:47:18.270Z,14.8
2018-11-11T10:48:08.193Z,14.8
2018-11-11T10:48:58.440Z,14.8
2018-11-11T10:49:48.867Z,14.8
2018-11-11T10:50:37.042Z,14.8
2018-11-11T10:51:28.418Z,14.8
2018-11-11T10:52:17.720Z,14.8
2018-11-11T10:53:07.617Z,14.8
2018-11-11T10:53:57.844Z,14.8
2018-11-11T10:54:49.519Z,14.8
2018-11-11T10:55:38.423Z,14.8
2018-11-11T10:56:27.063Z,14.8
2018-11-11T10:57:17.681Z,14.8
2018-11-11T10:58:08.103Z,14.8
2018-11-11T10:58:58.181Z,14.8
2018-11-11T10:59:48.266Z,14.8
2018-11-11T11:00:37.370Z,14.8
2018-11-11T11:01:28.139Z,14.8
2018-11-11T11:02:19.428Z,14.8
2018-11-11T11:03:08.903Z,14.8
2018-11-11T11:03:58.199Z,14.8
2018-11-11T11:04:48.319Z,14.8
2018-11-11T11:05:39.691Z,14.8
2018-11-11T11:06:29.941Z,14.8
2018-11-11T11:07:19.950Z,14.8
2018-11-11T11:08:09.773Z,14.8
2018-11-11T11:08:58.888Z,14.8
2018-11-11T11:09:48.893Z,14.8
2018-11-11T11:10:39.813Z,14.8
2018-11-11T11:11:29.188Z,14.9
2018-11-11T11:12:20.151Z,14.9
2018-11-11T11:13:11.299Z,14.9
2018-11-11T11:14:01.210Z,14.9
2018-11-11T11:14:50.573Z,14.9
2018-11-11T11:15:39.180Z,14.9
2018-11-11T11:16:29.578Z,14.9
2018-11-11T11:17:20.169Z,14.9
2018-11-11T11:18:09.416Z,14.9
2018-11-11T11:19:00.024Z,14.9
2018-11-11T11:19:50.970Z,14.9
2018-11-11T11:20:39.947Z,14.9
2018-11-11T11:21:30.309Z,14.9
2018-11-11T11:22:21.083Z,14.9
2018-11-11T11:23:11.851Z,14.9
2018-11-11T11:23:59.375Z,14.9
2018-11-11T11:24:49.287Z,14.9
2018-11-11T11:25:40.504Z,14.9
2018-11-11T11:26:29.999Z,14.9
2018-11-11T11:27:21.567Z,14.9
2018-11-11T11:28:10.492Z,14.9
2018-11-11T11:29:01.357Z,14.9
2018-11-11T11:29:51.097Z,14.9
2018-11-11T11:30:41.166Z,14.9
2018-11-11T11:31:32.489Z,14.9
2018-11-11T11:32:22.507Z,14.9
2018-11-11T11:33:10.800Z,14.9
2018-11-11T11:34:02.324Z,14.9
2018-11-11T11:34:52.007Z,14.9
2018-11-11T11:35:43.825Z,14.9
2018-11-11T11:36:31.059Z,14.9
2018-11-11T11:37:22.792Z,14.9
2018-11-11T11:38:12.900Z,14.9
2018-11-11T11:39:02.592Z,14.9
2018-11-11T11:39:52.067Z,14.9
2018-11-11T11:40:41.799Z,14.9
2018-11-11T11:41:32.994Z,14.9
2018-11-11T11:42:22.274Z,14.9
2018-11-11T11:43:11.464Z,14.9
2018-11-11T11:44:02.029Z,15
2018-11-11T11:44:51.442Z,14.9
2018-11-11T11:45:42.289Z,14.9
2018-11-11T11:46:31.775Z,14.9
2018-11-11T11:47:24.768Z,14.9
2018-11-11T11:48:13.523Z,14.9
2018-11-11T11:49:01.944Z,15
2018-11-11T11:49:52.149Z,15
2018-11-11T11:50:42.705Z,15
2018-11-11T11:51:32.579Z,15
2018-11-11T11:52:25.395Z,15
2018-11-11T11:53:14.385Z,15
2018-11-11T11:54:02.310Z,15
2018-11-11T11:54:52.763Z,15
2018-11-11T11:55:42.341Z,15
2018-11-11T11:56:33.576Z,15
2018-11-11T11:57:23.728Z,15
2018-11-11T11:58:12.344Z,15
2018-11-11T11:59:02.797Z,15